Time;durP1;ratioP1;P1;durP2;ratioP2;P2;SDS_P1;SDS_P2;PMS_P1;PMS_P2;Temp;Humidity;BMP_temperature;BMP_pressure;BME280_temperature;BME280_humidity;BME280_pressure;Samples;Min_cycle;Max_cycle;Signal;HPM_P1;HPM_P2
2024/03/21 00:00:10;;;;;;;10.77;6.93;;;;;;;0.94;66.40;93870.19;520901;28;752;-68
2024/03/21 00:00:25;;;;;;;11.07;6.97;;;;;;;0.96;65.88;93875.91;520937;28;895;-68
2024/03/21 00:00:41;;;;;;;9.23;7.13;;;;;;;0.97;66.10;93871.97;520895;28;769;-68
2024/03/21 00:00:56;;;;;;;9.47;7.23;;;;;;;1.00;66.09;93871.00;520891;28;887;-68
2024/03/21 00:01:11;;;;;;;10.60;7.23;;;;;;;1.02;66.15;93865.84;520897;28;816;-68
2024/03/21 00:01:30;;;;;;;10.98;7.20;;;;;;;1.05;65.90;93872.31;520871;28;781;-68
2024/03/21 00:01:46;;;;;;;9.15;6.88;;;;;;;1.02;65.56;93871.28;520814;28;949;-68
2024/03/21 00:02:01;;;;;;;8.63;6.83;;;;;;;1.01;65.84;93874.47;520923;28;844;-68
2024/03/21 00:02:16;;;;;;;9.40;7.07;;;;;;;1.01;65.82;93867.09;520856;28;839;-68
2024/03/21 00:02:32;;;;;;;10.38;7.03;;;;;;;1.03;66.00;93869.31;520888;28;848;-68
2024/03/21 00:02:47;;;;;;;9.40;6.60;;;;;;;1.05;65.58;93867.63;520864;28;872;-68
2024/03/21 00:03:03;;;;;;;9.30;6.53;;;;;;;0.99;65.90;93869.53;520835;28;1008;-68
2024/03/21 00:03:19;;;;;;;9.00;6.93;;;;;;;0.91;65.87;93868.44;520863;28;812;-69
2024/03/21 00:03:34;;;;;;;9.27;7.00;;;;;;;0.85;66.18;93869.59;520753;28;851;-68
2024/03/21 00:03:50;;;;;;;10.68;6.82;;;;;;;0.78;66.24;93873.44;520926;28;852;-68
2024/03/21 00:04:05;;;;;;;9.93;6.60;;;;;;;0.69;66.47;93873.59;522662;28;1112;-68
2024/03/21 00:04:21;;;;;;;9.30;6.93;;;;;;;0.62;66.97;93871.28;522796;28;785;-68
2024/03/21 00:04:36;;;;;;;9.83;6.80;;;;;;;0.56;66.83;93865.03;522770;28;815;-68
2024/03/21 00:04:51;;;;;;;9.27;6.50;;;;;;;0.55;67.04;93866.25;522797;28;785;-68
2024/03/21 00:05:11;;;;;;;8.83;6.80;;;;;;;0.56;67.43;93865.75;522857;28;812;-68
2024/03/21 00:05:26;;;;;;;8.02;6.13;;;;;;;0.51;67.10;93857.56;522714;28;922;-68
2024/03/21 00:05:42;;;;;;;8.02;5.90;;;;;;;0.54;67.42;93864.75;522806;28;737;-68
2024/03/21 00:05:57;;;;;;;7.33;5.80;;;;;;;0.55;67.14;93868.97;522016;28;836;-68
2024/03/21 00:06:14;;;;;;;8.27;5.53;;;;;;;0.56;67.47;93862.31;520946;28;793;-68
2024/03/21 00:06:30;;;;;;;8.85;5.85;;;;;;;0.60;67.03;93862.88;520895;28;832;-68
2024/03/21 00:06:45;;;;;;;6.27;5.27;;;;;;;0.63;67.12;93865.38;520857;28;828;-68
2024/03/21 00:07:02;;;;;;;5.93;4.85;;;;;;;0.66;66.69;93861.72;520877;28;749;-68
2024/03/21 00:07:18;;;;;;;6.78;5.20;;;;;;;0.68;66.93;93863.94;520924;28;872;-68
2024/03/21 00:07:33;;;;;;;6.90;5.00;;;;;;;0.66;66.80;93863.69;520832;28;852;-68
2024/03/21 00:07:49;;;;;;;6.70;5.13;;;;;;;0.45;66.31;93832.28;520922;28;737;-68
2024/03/21 00:08:05;;;;;;;7.18;5.32;;;;;;;0.59;66.65;93861.34;520826;28;828;-68
2024/03/21 00:08:21;;;;;;;7.20;5.53;;;;;;;0.61;66.71;93865.09;520705;28;1140;-68
2024/03/21 00:08:36;;;;;;;5.80;5.10;;;;;;;0.65;66.43;93859.47;520681;28;810;-68
2024/03/21 00:08:51;;;;;;;5.68;4.63;;;;;;;0.68;66.85;93861.22;520917;28;822;-68
2024/03/21 00:09:11;;;;;;;6.07;4.63;;;;;;;0.71;66.14;93863.00;520976;28;780;-68
2024/03/21 00:09:27;;;;;;;7.05;5.10;;;;;;;0.75;66.20;93861.59;520859;28;887;-68
2024/03/21 00:09:42;;;;;;;7.60;5.33;;;;;;;0.51;65.88;93822.25;520817;28;789;-68
2024/03/21 00:09:58;;;;;;;8.82;5.82;;;;;;;0.80;66.13;93860.16;520891;28;859;-68
2024/03/21 00:10:14;;;;;;;11.32;6.38;;;;;;;0.82;66.33;93857.72;520895;28;887;-69
2024/03/21 00:10:30;;;;;;;11.23;6.63;;;;;;;0.83;66.16;93864.63;520936;28;879;-68
2024/03/21 00:10:45;;;;;;;8.93;6.70;;;;;;;0.85;66.07;93862.19;520825;28;907;-68
2024/03/21 00:11:00;;;;;;;9.38;6.65;;;;;;;0.87;66.26;93859.00;520876;28;824;-68
2024/03/21 00:11:16;;;;;;;9.97;6.70;;;;;;;0.89;66.16;93862.72;520939;28;827;-68
2024/03/21 00:11:31;;;;;;;9.88;6.35;;;;;;;0.91;66.02;93864.97;520831;28;783;-68
2024/03/21 00:11:47;;;;;;;9.17;6.07;;;;;;;0.91;66.20;93865.72;520964;28;781;-68
2024/03/21 00:12:02;;;;;;;8.80;6.50;;;;;;;0.92;66.42;93861.03;520826;28;824;-68
2024/03/21 00:12:18;;;;;;;8.80;6.23;;;;;;;0.93;65.91;93857.84;520842;28;828;-68
2024/03/21 00:12:34;;;;;;;8.00;6.10;;;;;;;0.94;66.09;93862.03;520792;28;804;-68
2024/03/21 00:12:50;;;;;;;9.13;6.47;;;;;;;0.96;66.44;93858.84;520905;28;797;-68
2024/03/21 00:13:05;;;;;;;9.85;6.43;;;;;;;0.94;66.09;93859.34;520876;28;859;-68
2024/03/21 00:13:21;;;;;;;8.27;6.37;;;;;;;0.93;65.88;93855.13;520890;28;793;-68
2024/03/21 00:13:36;;;;;;;8.27;6.38;;;;;;;0.92;65.93;93861.03;520778;28;804;-68
2024/03/21 00:13:52;;;;;;;8.53;5.73;;;;;;;0.90;66.31;93856.06;520817;28;769;-68
2024/03/21 00:14:08;;;;;;;7.63;5.43;;;;;;;0.87;65.82;93853.56;520874;28;824;-68
2024/03/21 00:14:25;;;;;;;7.78;5.72;;;;;;;0.84;66.26;93859.94;520908;28;808;-68
2024/03/21 00:14:40;;;;;;;7.95;5.45;;;;;;;0.82;65.77;93856.97;520896;28;871;-68
2024/03/21 00:14:55;;;;;;;9.23;5.63;;;;;;;0.78;66.06;93857.91;520854;28;852;-68
2024/03/21 00:15:11;;;;;;;8.77;5.70;;;;;;;0.76;65.97;93857.63;520870;28;812;-68
2024/03/21 00:15:27;;;;;;;6.82;5.30;;;;;;;0.71;65.94;93858.31;520850;28;816;-68
2024/03/21 00:15:43;;;;;;;6.22;5.20;;;;;;;0.64;66.16;93847.84;520832;28;804;-68
2024/03/21 00:15:58;;;;;;;6.72;5.40;;;;;;;0.59;65.92;93847.78;520895;28;867;-68
2024/03/21 00:16:14;;;;;;;8.17;5.70;;;;;;;0.56;66.04;93848.75;520873;28;911;-68
2024/03/21 00:16:29;;;;;;;12.68;7.68;;;;;;;0.52;66.00;93850.91;520816;28;777;-68
2024/03/21 00:16:45;;;;;;;22.93;11.67;;;;;;;0.45;66.69;93849.34;520805;28;808;-68
2024/03/21 00:17:00;;;;;;;31.95;16.50;;;;;;;0.38;66.17;93847.03;520924;28;848;-68
2024/03/21 00:17:16;;;;;;;35.47;18.53;;;;;;;0.37;66.77;93844.78;520850;28;859;-68
2024/03/21 00:17:32;;;;;;;30.45;16.02;;;;;;;0.30;66.46;93845.19;520892;28;799;-68
2024/03/21 00:17:48;;;;;;;22.80;12.93;;;;;;;0.30;66.91;93845.94;520994;28;810;-68
2024/03/21 00:18:03;;;;;;;19.42;11.38;;;;;;;0.28;67.28;93848.34;520673;28;780;-68
2024/03/21 00:18:19;;;;;;;17.48;9.40;;;;;;;0.24;67.13;93849.78;520722;28;868;-68
2024/03/21 00:18:34;;;;;;;13.53;7.17;;;;;;;0.24;67.37;93849.78;520587;28;1910;-68
2024/03/21 00:18:50;;;;;;;10.73;6.83;;;;;;;0.25;66.91;93846.59;520685;28;835;-68
2024/03/21 00:19:05;;;;;;;8.27;6.40;;;;;;;0.28;67.06;93847.63;520686;28;793;-68
2024/03/21 00:19:21;;;;;;;8.37;6.07;;;;;;;0.30;67.16;93847.88;520667;28;891;-68
2024/03/21 00:19:36;;;;;;;10.00;6.18;;;;;;;0.32;66.90;93848.91;520660;28;757;-68
2024/03/21 00:19:52;;;;;;;9.07;6.10;;;;;;;0.29;66.95;93849.09;520729;28;760;-68
2024/03/21 00:20:10;;;;;;;9.27;6.18;;;;;;;0.31;67.23;93846.66;520927;28;887;-68
2024/03/21 00:20:25;;;;;;;10.27;6.60;;;;;;;0.32;66.63;93848.91;520830;28;816;-68
2024/03/21 00:20:41;;;;;;;12.63;7.03;;;;;;;0.31;67.14;93846.66;520802;28;928;-68
2024/03/21 00:20:56;;;;;;;12.18;6.65;;;;;;;0.31;67.05;93841.97;520907;28;733;-68
2024/03/21 00:21:12;;;;;;;9.37;6.70;;;;;;;0.31;67.05;93854.81;520895;28;792;-68
2024/03/21 00:21:27;;;;;;;9.63;7.35;;;;;;;0.31;67.12;93849.38;520880;28;765;-68
2024/03/21 00:21:42;;;;;;;9.97;7.47;;;;;;;0.30;67.36;93845.19;520865;28;753;-68
2024/03/21 00:21:58;;;;;;;9.48;7.43;;;;;;;0.26;67.42;93842.63;520925;28;741;-68
2024/03/21 00:22:13;;;;;;;9.87;7.10;;;;;;;0.25;67.52;93843.13;520819;28;891;-68
2024/03/21 00:22:29;;;;;;;9.90;6.75;;;;;;;0.20;67.82;93839.09;520796;28;820;-68
2024/03/21 00:22:46;;;;;;;10.87;6.93;;;;;;;0.14;67.66;93837.53;520784;28;808;-68
2024/03/21 00:23:01;;;;;;;11.52;7.00;;;;;;;0.10;67.98;93845.13;520795;28;833;-68
2024/03/21 00:23:17;;;;;;;10.03;6.53;;;;;;;0.10;68.06;93845.13;520895;28;1067;-68
2024/03/21 00:23:32;;;;;;;8.98;6.03;;;;;;;0.09;67.99;93844.38;520758;28;741;-68
2024/03/21 00:23:47;;;;;;;8.87;5.97;;;;;;;0.15;67.84;93844.47;520836;28;840;-68
2024/03/21 00:24:03;;;;;;;10.23;7.38;;;;;;;0.18;67.97;93846.22;520902;28;757;-68
2024/03/21 00:24:20;;;;;;;10.63;7.97;;;;;;;0.21;68.32;93843.31;520826;28;800;-68
2024/03/21 00:24:39;;;;;;;10.65;7.50;;;;;;;0.23;67.77;93840.13;520757;28;821;-68
2024/03/21 00:24:54;;;;;;;10.77;7.55;;;;;;;0.25;68.16;93843.88;520736;28;816;-68
2024/03/21 00:25:10;;;;;;;11.80;7.80;;;;;;;0.28;67.71;93842.19;520961;28;749;-68
2024/03/21 00:25:26;;;;;;;12.25;7.60;;;;;;;0.33;68.24;93846.94;520830;28;1151;-68
2024/03/21 00:25:41;;;;;;;10.90;7.30;;;;;;;0.28;67.62;93834.75;520914;28;761;-68
2024/03/21 00:26:00;;;;;;;10.75;7.13;;;;;;;0.34;67.81;93843.00;520898;28;844;-68
2024/03/21 00:26:16;;;;;;;13.70;8.10;;;;;;;0.30;67.83;93848.66;520791;28;793;-68
2024/03/21 00:26:31;;;;;;;14.80;8.80;;;;;;;0.24;67.64;93844.34;520832;28;809;-68
2024/03/21 00:26:47;;;;;;;16.57;9.70;;;;;;;0.21;67.66;93840.63;520878;28;925;-68
2024/03/21 00:27:03;;;;;;;18.95;10.85;;;;;;;0.19;68.04;93839.59;520785;28;820;-68
2024/03/21 00:27:19;;;;;;;16.83;10.23;;;;;;;0.22;67.71;93842.09;520861;28;833;-68
2024/03/21 00:27:36;;;;;;;13.57;9.20;;;;;;;0.20;67.33;93841.06;520714;28;796;-68
2024/03/21 00:27:51;;;;;;;14.45;9.25;;;;;;;0.19;67.69;93840.34;520911;28;879;-68
2024/03/21 00:28:07;;;;;;;15.50;9.45;;;;;;;0.22;67.63;93839.38;520830;28;856;-68
2024/03/21 00:28:22;;;;;;;14.77;8.80;;;;;;;0.22;67.51;93833.94;520849;28;789;-68
2024/03/21 00:28:38;;;;;;;15.40;8.38;;;;;;;0.27;67.37;93846.09;520932;28;812;-68
2024/03/21 00:28:53;;;;;;;15.83;9.33;;;;;;;0.30;67.63;93845.19;520774;28;1024;-68
2024/03/21 00:29:09;;;;;;;16.90;10.10;;;;;;;0.32;67.64;93842.72;520848;28;769;-68
2024/03/21 00:29:24;;;;;;;16.83;9.70;;;;;;;0.33;67.67;93839.53;520898;28;765;-68
2024/03/21 00:29:40;;;;;;;14.55;8.88;;;;;;;0.36;67.42;93840.56;520841;28;832;-68
2024/03/21 00:29:55;;;;;;;12.80;8.23;;;;;;;0.39;67.21;93840.34;520831;28;840;-68
2024/03/21 00:30:11;;;;;;;13.65;8.30;;;;;;;0.38;67.86;93840.84;520922;28;828;-68
2024/03/21 00:30:26;;;;;;;13.60;8.33;;;;;;;0.35;67.40;93841.78;520575;28;1125;-68
2024/03/21 00:30:43;;;;;;;13.63;8.70;;;;;;;0.33;67.45;93839.53;520670;28;820;-68
2024/03/21 00:30:59;;;;;;;14.32;9.00;;;;;;;0.34;67.34;93841.03;520689;28;891;-68
2024/03/21 00:31:16;;;;;;;15.02;9.07;;;;;;;0.33;67.27;93838.78;520687;28;844;-68
2024/03/21 00:31:31;;;;;;;16.17;9.35;;;;;;;0.30;67.55;93837.03;520631;28;1071;-68
2024/03/21 00:31:47;;;;;;;16.48;9.15;;;;;;;0.25;67.52;93849.31;520646;28;714;-68
2024/03/21 00:32:02;;;;;;;17.00;9.10;;;;;;;0.20;67.71;93841.81;520640;28;796;-68
2024/03/21 00:32:18;;;;;;;16.50;9.50;;;;;;;0.17;68.22;93840.06;520748;28;840;-68
2024/03/21 00:32:34;;;;;;;16.95;10.63;;;;;;;0.14;67.90;93842.97;520810;28;1070;-68
2024/03/21 00:32:50;;;;;;;17.05;11.00;;;;;;;0.13;68.01;93836.06;520846;28;784;-69
2024/03/21 00:33:05;;;;;;;17.40;10.80;;;;;;;0.09;68.31;93838.22;520853;28;846;-68
2024/03/21 00:33:20;;;;;;;18.85;10.77;;;;;;;0.07;68.43;93837.91;520788;28;764;-68
2024/03/21 00:33:36;;;;;;;18.03;10.97;;;;;;;-0.01;68.32;93830.19;520865;28;942;-68
2024/03/21 00:33:51;;;;;;;18.58;11.45;;;;;;;0.09;68.52;93843.66;520844;28;737;-68
2024/03/21 00:34:08;;;;;;;18.20;11.00;;;;;;;-0.03;68.86;93819.06;520911;28;831;-68
2024/03/21 00:34:24;;;;;;;18.95;10.25;;;;;;;0.14;68.24;93842.97;520882;28;832;-68
2024/03/21 00:34:39;;;;;;;20.27;10.57;;;;;;;0.17;68.70;93844.75;520796;28;883;-68
2024/03/21 00:34:55;;;;;;;16.35;10.93;;;;;;;0.19;68.31;93839.59;520880;28;812;-68
2024/03/21 00:35:10;;;;;;;16.77;10.20;;;;;;;0.19;68.61;93839.59;520843;28;1064;-68
2024/03/21 00:35:26;;;;;;;18.95;10.45;;;;;;;0.16;68.36;93843.22;520823;28;807;-68
2024/03/21 00:35:41;;;;;;;20.43;11.67;;;;;;;0.18;68.07;93843.50;520803;28;765;-68
2024/03/21 00:35:56;;;;;;;20.35;12.07;;;;;;;0.16;67.72;93833.13;520740;28;883;-68
2024/03/21 00:36:12;;;;;;;20.43;11.87;;;;;;;0.18;67.89;93840.78;520851;28;718;-68
2024/03/21 00:36:28;;;;;;;20.15;11.77;;;;;;;0.17;67.47;93844.75;520885;28;1194;-68
2024/03/21 00:36:43;;;;;;;20.75;12.63;;;;;;;0.15;67.70;93839.78;520819;28;856;-68
2024/03/21 00:36:59;;;;;;;21.20;13.53;;;;;;;0.19;67.58;93839.59;520863;28;967;-68
2024/03/21 00:37:14;;;;;;;22.15;13.05;;;;;;;0.21;67.48;93839.84;520869;28;761;-68
2024/03/21 00:37:30;;;;;;;22.87;13.30;;;;;;;0.23;67.32;93843.59;520782;28;780;-68
2024/03/21 00:37:45;;;;;;;23.00;13.93;;;;;;;0.27;67.09;93843.41;520833;28;860;-68
2024/03/21 00:38:01;;;;;;;23.83;14.23;;;;;;;0.28;67.18;93842.91;520850;28;899;-68
2024/03/21 00:38:17;;;;;;;23.65;13.88;;;;;;;-0.04;66.98;93795.06;520887;28;773;-68
2024/03/21 00:38:33;;;;;;;23.10;13.15;;;;;;;0.29;67.04;93843.66;520735;28;1959;-68
2024/03/21 00:38:48;;;;;;;19.13;11.60;;;;;;;0.08;66.92;93812.28;520620;28;1356;-68
2024/03/21 00:39:03;;;;;;;17.70;10.77;;;;;;;0.27;66.92;93846.09;520611;28;828;-68
2024/03/21 00:39:19;;;;;;;16.90;10.30;;;;;;;0.22;67.15;93839.38;520658;28;852;-68
2024/03/21 00:39:35;;;;;;;16.23;9.88;;;;;;;0.18;66.85;93836.13;520713;28;769;-68
2024/03/21 00:39:53;;;;;;;14.43;9.20;;;;;;;0.19;66.89;93845.00;520704;28;877;-68
2024/03/21 00:40:09;;;;;;;11.93;8.23;;;;;;;0.20;66.99;93841.81;520614;28;1075;-68
2024/03/21 00:40:25;;;;;;;11.38;7.93;;;;;;;0.05;66.74;93813.97;520658;28;722;-68
2024/03/21 00:40:40;;;;;;;13.05;8.23;;;;;;;0.12;66.20;93816.28;520821;28;804;-68
2024/03/21 00:40:56;;;;;;;17.57;10.90;;;;;;;0.28;66.55;93842.19;520854;28;781;-68
2024/03/21 00:41:11;;;;;;;24.27;15.70;;;;;;;0.30;66.34;93842.47;520870;28;919;-68
2024/03/21 00:41:26;;;;;;;31.90;20.63;;;;;;;0.32;66.10;93837.31;520762;28;831;-68
2024/03/21 00:41:42;;;;;;;36.85;22.48;;;;;;;0.33;66.10;93839.53;520759;28;836;-68
2024/03/21 00:41:58;;;;;;;39.40;22.97;;;;;;;0.35;66.01;93834.38;520893;28;749;-68
2024/03/21 00:42:15;;;;;;;42.65;25.10;;;;;;;0.37;65.48;93836.63;520794;28;858;-68
2024/03/21 00:42:30;;;;;;;66.15;38.10;;;;;;;0.38;65.89;93832.69;520861;28;874;-68
2024/03/21 00:42:46;;;;;;;84.68;49.20;;;;;;;0.36;65.67;93843.28;520916;28;901;-68
2024/03/21 00:43:01;;;;;;;86.17;50.97;;;;;;;0.36;66.06;93843.28;520841;28;833;-68
2024/03/21 00:43:17;;;;;;;88.23;52.23;;;;;;;0.35;66.06;93836.34;520819;28;1016;-68
2024/03/21 00:43:32;;;;;;;90.13;51.85;;;;;;;0.34;66.05;93837.56;520829;28;811;-68
2024/03/21 00:43:47;;;;;;;90.03;50.17;;;;;;;0.35;66.17;93842.53;520845;28;777;-68
2024/03/21 00:44:07;;;;;;;73.70;42.80;;;;;;;0.37;65.85;93842.06;520731;28;840;-68
2024/03/21 00:44:22;;;;;;;65.10;38.10;;;;;;;0.39;65.47;93840.34;520750;28;785;-68
2024/03/21 00:44:38;;;;;;;62.87;37.67;;;;;;;0.40;65.89;93839.16;520817;28;1105;-68
2024/03/21 00:44:53;;;;;;;55.75;33.63;;;;;;;0.40;65.52;93839.16;520775;28;811;-68
2024/03/21 00:45:09;;;;;;;47.20;28.67;;;;;;;0.41;65.89;93837.91;520857;28;820;-68
2024/03/21 00:45:24;;;;;;;45.33;28.25;;;;;;;0.35;66.31;93834.38;520802;28;773;-68
2024/03/21 00:45:40;;;;;;;42.85;26.38;;;;;;;0.32;66.08;93834.59;520815;28;832;-68
2024/03/21 00:45:56;;;;;;;37.47;22.75;;;;;;;0.22;66.16;93838.66;520812;28;859;-68
2024/03/21 00:46:12;;;;;;;35.60;20.63;;;;;;;0.16;66.34;93840.53;520843;28;828;-68
2024/03/21 00:46:28;;;;;;;32.63;18.65;;;;;;;0.15;66.47;93839.03;520816;28;836;-68
2024/03/21 00:46:44;;;;;;;26.95;16.33;;;;;;;0.12;66.63;93834.53;520823;28;777;-68
2024/03/21 00:47:00;;;;;;;24.38;14.95;;;;;;;0.13;66.38;93833.34;520865;28;809;-68
2024/03/21 00:47:15;;;;;;;26.38;15.30;;;;;;;0.13;66.76;93834.06;520776;28;785;-68
2024/03/21 00:47:30;;;;;;;30.27;17.60;;;;;;;0.14;66.62;93837.53;520722;28;992;-68
2024/03/21 00:47:46;;;;;;;31.10;17.77;;;;;;;0.13;66.46;93836.78;520746;28;1244;-68
2024/03/21 00:48:02;;;;;;;28.37;17.03;;;;;;;0.13;66.94;93831.34;520665;28;1080;-68
2024/03/21 00:48:18;;;;;;;25.75;16.58;;;;;;;0.05;66.65;93818.63;520900;28;887;-68
2024/03/21 00:48:33;;;;;;;26.13;16.83;;;;;;;0.10;66.71;93829.59;520812;28;758;-68
2024/03/21 00:48:49;;;;;;;26.23;16.42;;;;;;;0.10;66.91;93831.56;520780;28;836;-68
2024/03/21 00:49:05;;;;;;;28.27;16.93;;;;;;;0.04;66.85;93822.59;520777;28;994;-68
2024/03/21 00:49:20;;;;;;;30.77;18.17;;;;;;;0.07;67.03;93832.47;520895;28;819;-68
2024/03/21 00:49:36;;;;;;;29.77;18.67;;;;;;;0.06;66.85;93831.75;520796;28;765;-68
2024/03/21 00:49:51;;;;;;;31.97;19.33;;;;;;;0.08;66.70;93829.31;520770;28;844;-68
2024/03/21 00:50:07;;;;;;;35.88;19.58;;;;;;;0.10;66.93;93831.56;520793;28;768;-68
2024/03/21 00:50:23;;;;;;;35.70;19.27;;;;;;;0.10;66.89;93828.84;520864;28;903;-68
2024/03/21 00:50:38;;;;;;;34.37;20.73;;;;;;;0.08;67.26;93829.31;520849;28;809;-68
2024/03/21 00:50:54;;;;;;;38.33;23.15;;;;;;;0.09;66.61;93824.66;520806;28;891;-68
2024/03/21 00:51:09;;;;;;;41.47;23.97;;;;;;;0.10;66.98;93835.03;520806;28;832;-68
2024/03/21 00:51:25;;;;;;;38.35;22.70;;;;;;;0.11;67.17;93833.78;520893;28;777;-68
2024/03/21 00:51:41;;;;;;;36.58;22.42;;;;;;;0.11;67.03;93833.06;520850;28;820;-68
2024/03/21 00:51:56;;;;;;;38.27;23.50;;;;;;;0.04;67.22;93825.31;520880;28;796;-68
2024/03/21 00:52:11;;;;;;;38.75;23.67;;;;;;;0.09;66.78;93832.78;520841;28;848;-68
2024/03/21 00:52:27;;;;;;;33.40;21.13;;;;;;;0.08;67.29;93828.56;520822;28;872;-68
2024/03/21 00:52:42;;;;;;;29.77;19.93;;;;;;;0.10;67.25;93835.03;520756;28;901;-68
2024/03/21 00:52:58;;;;;;;36.80;22.73;;;;;;;0.10;66.99;93835.03;520829;28;840;-68
2024/03/21 00:53:14;;;;;;;43.25;25.67;;;;;;;0.11;66.94;93830.34;520792;28;1061;-68
2024/03/21 00:53:29;;;;;;;42.42;27.05;;;;;;;0.08;67.48;93837.47;520872;28;844;-68
2024/03/21 00:53:45;;;;;;;39.47;26.00;;;;;;;0.02;66.66;93830.47;520783;28;789;-68
2024/03/21 00:54:01;;;;;;;40.70;25.67;;;;;;;-0.02;66.94;93834.09;520705;28;860;-68
2024/03/21 00:54:16;;;;;;;38.75;24.25;;;;;;;-0.04;67.16;93827.66;520862;28;800;-68
2024/03/21 00:54:32;;;;;;;34.88;21.60;;;;;;;-0.05;67.19;93839.72;520878;28;753;-68
2024/03/21 00:54:48;;;;;;;33.13;20.75;;;;;;;-0.07;67.04;93832.06;520920;28;828;-68
2024/03/21 00:55:04;;;;;;;29.35;18.80;;;;;;;-0.24;66.85;93803.19;520770;28;896;-68
2024/03/21 00:55:19;;;;;;;24.87;16.37;;;;;;;-0.07;67.03;93834.03;520736;28;1069;-68
2024/03/21 00:55:34;;;;;;;19.90;13.68;;;;;;;-0.05;66.87;93831.59;520745;28;832;-68
2024/03/21 00:55:50;;;;;;;16.37;11.37;;;;;;;-0.03;67.10;93832.63;520876;28;832;-68
2024/03/21 00:56:06;;;;;;;18.23;11.68;;;;;;;-0.01;67.02;93830.19;520825;28;855;-68
2024/03/21 00:56:22;;;;;;;19.23;11.65;;;;;;;0.00;66.75;93834.38;520861;28;776;-68
2024/03/21 00:56:38;;;;;;;16.73;10.48;;;;;;;-0.01;66.92;93838.31;520827;28;1076;-68
2024/03/21 00:56:54;;;;;;;15.25;9.57;;;;;;;0.04;66.78;93834.19;520807;28;1171;-68
2024/03/21 00:57:09;;;;;;;15.45;9.73;;;;;;;0.04;66.88;93834.19;520844;28;860;-68
2024/03/21 00:57:27;;;;;;;14.73;10.13;;;;;;;0.04;66.42;93834.19;520849;28;1091;-68
2024/03/21 00:57:43;;;;;;;16.15;10.93;;;;;;;0.02;66.65;93831.22;520848;28;856;-68
2024/03/21 00:57:58;;;;;;;15.60;10.80;;;;;;;0.00;67.00;93823.53;520821;28;860;-68
2024/03/21 00:58:14;;;;;;;14.23;10.33;;;;;;;0.00;66.85;93833.66;520792;28;1093;-68
2024/03/21 00:58:29;;;;;;;14.25;10.38;;;;;;;-0.02;67.04;93833.34;520767;28;1966;-68
2024/03/21 00:58:45;;;;;;;24.37;15.40;;;;;;;-0.05;66.99;93831.59;520782;28;827;-68
2024/03/21 00:59:01;;;;;;;38.08;23.95;;;;;;;-0.07;67.32;93832.06;520855;28;797;-68
2024/03/21 00:59:16;;;;;;;37.78;25.25;;;;;;;-0.11;67.47;93838.91;520765;28;773;-68
2024/03/21 00:59:32;;;;;;;28.90;20.23;;;;;;;-0.13;67.41;93833.22;520753;28;836;-68
2024/03/21 00:59:47;;;;;;;22.17;15.35;;;;;;;-0.14;67.64;93831.69;520894;28;773;-68
2024/03/21 01:00:03;;;;;;;20.10;12.97;;;;;;;-0.15;67.53;93827.47;520801;28;836;-68
2024/03/21 01:00:21;;;;;;;17.70;12.38;;;;;;;-0.17;67.57;93835.34;520819;28;825;-68
2024/03/21 01:00:36;;;;;;;14.75;11.35;;;;;;;-0.18;67.59;93829.19;520767;28;891;-68
2024/03/21 01:00:52;;;;;;;15.43;11.50;;;;;;;-0.20;67.86;93828.91;520738;28;840;-68
2024/03/21 01:01:07;;;;;;;19.00;13.10;;;;;;;-0.13;67.66;93831.22;520805;28;860;-68
2024/03/21 01:01:23;;;;;;;20.57;14.17;;;;;;;-0.11;67.64;93828.78;520864;28;737;-68
2024/03/21 01:01:39;;;;;;;21.30;14.68;;;;;;;-0.08;67.45;93827.84;520881;28;848;-68
2024/03/21 01:01:55;;;;;;;24.08;15.43;;;;;;;-0.05;67.59;93832.34;520846;28;801;-68
2024/03/21 01:02:11;;;;;;;22.92;13.93;;;;;;;-0.02;67.39;93830.63;520827;28;851;-68
2024/03/21 01:02:26;;;;;;;16.65;11.02;;;;;;;-0.01;67.11;93830.19;520752;28;780;-68
2024/03/21 01:02:42;;;;;;;16.03;11.63;;;;;;;-0.03;67.14;93827.19;520786;28;906;-68
2024/03/21 01:02:57;;;;;;;19.20;13.00;;;;;;;-0.09;67.09;93829.06;520884;28;927;-68
2024/03/21 01:03:13;;;;;;;18.43;12.50;;;;;;;-0.13;67.19;93831.22;520804;28;813;-68
2024/03/21 01:03:29;;;;;;;18.85;12.95;;;;;;;-0.18;67.19;93825.72;520865;28;781;-68
2024/03/21 01:03:44;;;;;;;21.60;14.07;;;;;;;-0.24;67.43;93833.03;520813;28;862;-68
2024/03/21 01:04:00;;;;;;;20.02;13.52;;;;;;;-0.24;67.67;93836.47;520863;28;888;-68
2024/03/21 01:04:16;;;;;;;18.23;12.77;;;;;;;-0.22;67.58;93831.31;520748;28;804;-68
2024/03/21 01:04:31;;;;;;;18.27;12.23;;;;;;;-0.18;67.54;93836.56;520884;28;804;-68
2024/03/21 01:04:50;;;;;;;17.97;11.97;;;;;;;-0.14;67.85;93828.97;520812;28;855;-68
2024/03/21 01:05:06;;;;;;;17.08;11.70;;;;;;;-0.10;67.92;93832.25;520789;28;808;-68
2024/03/21 01:05:22;;;;;;;16.23;11.52;;;;;;;-0.08;67.93;93830.56;520840;28;1008;-68
2024/03/21 01:05:37;;;;;;;17.20;12.10;;;;;;;-0.05;67.67;93831.59;520772;28;844;-68
2024/03/21 01:05:56;;;;;;;16.93;12.13;;;;;;;-0.02;67.84;93830.63;520759;28;832;-68
2024/03/21 01:06:11;;;;;;;14.65;10.70;;;;;;;-0.04;67.57;93833.81;520802;28;892;-68
2024/03/21 01:06:27;;;;;;;16.08;11.55;;;;;;;-0.02;68.17;93828.66;520720;28;906;-68
2024/03/21 01:06:43;;;;;;;16.73;11.93;;;;;;;0.00;67.52;93833.66;520817;28;848;-68
2024/03/21 01:06:59;;;;;;;15.00;10.95;;;;;;;0.03;67.65;93832.69;520817;28;816;-68
2024/03/21 01:07:14;;;;;;;14.50;11.20;;;;;;;0.05;67.19;93830.25;520813;28;816;-68
2024/03/21 01:07:30;;;;;;;15.10;11.18;;;;;;;0.07;67.41;93832.47;520846;28;811;-68
2024/03/21 01:07:47;;;;;;;18.23;12.05;;;;;;;0.10;67.21;93831.56;520793;28;792;-68
2024/03/21 01:08:03;;;;;;;21.70;14.15;;;;;;;0.12;67.06;93834.53;520814;28;863;-68
2024/03/21 01:08:18;;;;;;;21.30;14.70;;;;;;;0.14;66.88;93832.09;520806;28;1092;-68
2024/03/21 01:08:34;;;;;;;17.45;13.32;;;;;;;0.16;67.15;93826.94;520801;28;824;-68
2024/03/21 01:08:49;;;;;;;17.03;12.27;;;;;;;0.18;67.13;93830.69;520777;28;765;-68
2024/03/21 01:09:05;;;;;;;19.13;13.57;;;;;;;0.21;67.48;93826.28;520839;28;741;-68
2024/03/21 01:09:20;;;;;;;23.50;16.00;;;;;;;0.22;67.07;93831.22;520679;28;860;-68
2024/03/21 01:09:36;;;;;;;26.90;17.63;;;;;;;0.23;67.28;93829.28;520769;28;975;-68
2024/03/21 01:09:51;;;;;;;27.80;18.17;;;;;;;0.24;66.79;93825.34;520792;28;766;-68
2024/03/21 01:10:09;;;;;;;32.33;18.67;;;;;;;0.27;66.97;93833.28;520878;28;820;-68
2024/03/21 01:10:25;;;;;;;31.67;17.98;;;;;;;0.28;66.79;93829.34;520764;28;813;-68
2024/03/21 01:10:47;;;;;;;27.97;17.70;;;;;;;0.30;66.67;93823.44;520741;28;844;-68
2024/03/21 01:11:03;;;;;;;28.20;17.65;;;;;;;0.31;66.57;93827.66;520777;28;901;-68
2024/03/21 01:11:19;;;;;;;29.92;18.20;;;;;;;0.32;66.51;93831.88;520848;28;864;-68
2024/03/21 01:11:34;;;;;;;32.03;18.33;;;;;;;0.33;66.51;93819.78;520774;28;781;-68
2024/03/21 01:11:50;;;;;;;31.00;18.02;;;;;;;0.34;66.32;93824.00;520847;28;722;-68
2024/03/21 01:12:05;;;;;;;28.43;17.87;;;;;;;0.36;67.03;93824.25;520761;28;875;-68
2024/03/21 01:12:21;;;;;;;27.10;17.40;;;;;;;0.37;67.16;93820.34;520788;28;881;-68
2024/03/21 01:12:36;;;;;;;25.83;16.67;;;;;;;0.36;66.63;93819.59;520801;28;915;-68
2024/03/21 01:12:52;;;;;;;25.73;16.40;;;;;;;0.38;66.71;93829.97;520842;28;821;-68
2024/03/21 01:13:07;;;;;;;29.57;16.67;;;;;;;0.38;66.81;93825.28;520825;28;836;-68
2024/03/21 01:13:23;;;;;;;30.27;16.35;;;;;;;0.39;66.64;93821.34;520685;28;852;-68
2024/03/21 01:13:38;;;;;;;26.88;16.35;;;;;;;0.29;66.94;93811.84;520815;28;773;-69
2024/03/21 01:13:54;;;;;;;25.77;16.90;;;;;;;0.38;67.12;93817.16;520793;28;888;-68
2024/03/21 01:14:09;;;;;;;26.67;17.10;;;;;;;0.40;67.12;93820.13;520852;28;749;-68
2024/03/21 01:14:25;;;;;;;27.45;16.48;;;;;;;0.40;66.98;93822.84;520718;28;825;-68
2024/03/21 01:14:41;;;;;;;27.08;15.88;;;;;;;0.41;66.93;93818.16;520713;28;828;-68
2024/03/21 01:14:56;;;;;;;28.33;16.23;;;;;;;0.42;66.51;93822.38;520832;28;805;-68
2024/03/21 01:15:12;;;;;;;27.30;16.40;;;;;;;0.44;66.77;93822.63;520790;28;817;-68
2024/03/21 01:15:27;;;;;;;25.93;16.67;;;;;;;0.45;66.40;93816.75;520827;28;757;-68
2024/03/21 01:15:43;;;;;;;27.55;16.98;;;;;;;0.44;66.67;93820.69;520583;28;1285;-68
2024/03/21 01:15:58;;;;;;;27.07;16.60;;;;;;;0.46;66.40;93823.66;520682;28;801;-68
2024/03/21 01:16:13;;;;;;;25.45;16.10;;;;;;;0.42;66.66;93823.13;520623;28;777;-68
2024/03/21 01:16:29;;;;;;;24.73;15.50;;;;;;;0.36;66.55;93819.59;520644;28;745;-68